createdAt,value
2019-01-24T00:01:10.449Z,78.73
2019-01-24T00:03:40.089Z,88.50
2019-01-24T00:06:09.733Z,87.93
2019-01-24T00:08:39.473Z,92.23
2019-01-24T00:11:09.418Z,83.13
2019-01-24T00:13:39.041Z,86.47
2019-01-24T00:16:09.055Z,82.07
2019-01-24T00:18:38.704Z,78.03
2019-01-24T00:21:08.400Z,77.30
2019-01-24T00:23:38.157Z,86.70
2019-01-24T00:26:08.103Z,83.13
2019-01-24T00:28:37.797Z,86.33
2019-01-24T00:31:07.488Z,83.43
2019-01-24T00:33:37.112Z,83.63
2019-01-24T00:36:06.993Z,85.10
2019-01-24T00:38:36.624Z,77.00
2019-01-24T00:41:06.484Z,80.13
2019-01-24T00:43:36.265Z,69.30
2019-01-24T00:46:06.293Z,81.17
2019-01-24T00:48:36.178Z,70.70
2019-01-24T00:51:05.820Z,68.53
2019-01-24T00:53:35.502Z,67.13
2019-01-24T00:56:05.210Z,80.73
2019-01-24T00:58:34.840Z,74.70
2019-01-24T01:01:04.789Z,70.60
2019-01-24T01:03:34.796Z,69.03
2019-01-24T01:06:04.795Z,68.33
2019-01-24T01:08:34.497Z,66.77
2019-01-24T01:11:04.199Z,62.43
2019-01-24T01:13:33.857Z,60.67
2019-01-24T01:16:03.647Z,63.67
2019-01-24T01:18:33.419Z,68.60
2019-01-24T01:21:03.320Z,59.57
2019-01-24T01:23:33.014Z,56.53
2019-01-24T01:26:02.749Z,63.63
2019-01-24T01:28:32.600Z,56.07
2019-01-24T01:31:03.070Z,54.37
2019-01-24T01:33:32.984Z,57.53
2019-01-24T01:36:04.428Z,62.57
2019-01-24T01:38:34.101Z,57.73
2019-01-24T01:41:04.036Z,60.40
2019-01-24T01:43:33.756Z,60.03
2019-01-24T01:46:03.453Z,54.13
2019-01-24T01:48:33.077Z,61.60
2019-01-24T01:51:02.779Z,63.67
2019-01-24T01:53:32.701Z,58.27
2019-01-24T01:56:02.642Z,61.83
2019-01-24T01:58:32.292Z,61.40
2019-01-24T02:01:01.929Z,58.23
2019-01-24T02:03:31.577Z,59.10
2019-01-24T02:06:01.532Z,63.23
2019-01-24T02:08:31.575Z,58.07
2019-01-24T02:11:01.391Z,55.90
2019-01-24T02:13:31.213Z,58.80
2019-01-24T02:16:00.805Z,61.93
2019-01-24T02:18:30.384Z,60.80
2019-01-24T02:21:00.040Z,58.63
2019-01-24T02:23:29.617Z,55.30
2019-01-24T02:25:59.249Z,59.00
2019-01-24T02:28:29.095Z,62.00
2019-01-24T02:30:58.968Z,58.83
2019-01-24T02:33:28.610Z,68.33
2019-01-24T02:35:58.312Z,63.10
2019-01-24T02:38:27.923Z,65.23
2019-01-24T02:40:57.510Z,65.23
2019-01-24T02:43:27.088Z,67.50
2019-01-24T02:45:56.909Z,62.83
2019-01-24T02:48:26.545Z,61.40
2019-01-24T02:50:56.457Z,63.33
2019-01-24T02:53:26.085Z,62.87
2019-01-24T02:55:55.781Z,62.50
2019-01-24T02:58:25.404Z,60.00
2019-01-24T03:00:55.091Z,60.80
2019-01-24T03:03:25.032Z,49.43
2019-01-24T03:05:54.664Z,60.00
2019-01-24T03:08:24.364Z,55.53
2019-01-24T03:10:54.015Z,50.63
2019-01-24T03:13:23.765Z,57.93
2019-01-24T03:15:53.375Z,55.73
2019-01-24T03:18:23.008Z,47.63
2019-01-24T03:20:52.665Z,56.10
2019-01-24T03:23:22.375Z,56.90
2019-01-24T03:25:52.084Z,54.60
2019-01-24T03:28:21.930Z,57.50
2019-01-24T03:30:51.546Z,53.40
2019-01-24T03:33:21.254Z,58.70
2019-01-24T03:35:50.861Z,54.83
2019-01-24T03:38:20.553Z,57.70
2019-01-24T03:40:50.326Z,54.23
2019-01-24T03:43:19.983Z,56.80
2019-01-24T03:45:49.600Z,58.40
2019-01-24T03:48:19.217Z,58.53
2019-01-24T03:50:49.123Z,60.27
2019-01-24T03:53:18.819Z,58.47
2019-01-24T03:55:48.445Z,70.47
2019-01-24T03:58:18.193Z,56.10
2019-01-24T04:00:47.813Z,63.53
2019-01-24T04:03:17.480Z,51.63
2019-01-24T04:05:47.249Z,52.80
2019-01-24T04:08:16.905Z,51.87
2019-01-24T04:10:46.526Z,51.43
2019-01-24T04:13:16.175Z,54.43
2019-01-24T04:15:45.977Z,57.63
2019-01-24T04:18:15.988Z,53.40
2019-01-24T04:20:45.639Z,54.43
2019-01-24T04:23:15.601Z,55.03
2019-01-24T04:25:45.273Z,55.67
2019-01-24T04:28:14.904Z,61.53
2019-01-24T04:30:44.749Z,54.07
2019-01-24T04:33:14.462Z,56.47
2019-01-24T04:35:44.221Z,56.20
2019-01-24T04:38:13.937Z,52.87
2019-01-24T04:40:43.553Z,55.43
2019-01-24T04:43:13.346Z,53.30
2019-01-24T04:45:43.184Z,54.67
2019-01-24T04:48:12.855Z,58.00
2019-01-24T04:50:42.627Z,54.93
2019-01-24T04:53:12.299Z,58.60
2019-01-24T04:55:42.036Z,59.27
2019-01-24T04:58:11.838Z,58.07
2019-01-24T05:00:41.446Z,55.00
2019-01-24T05:03:11.059Z,58.70
2019-01-24T05:05:40.961Z,55.40
2019-01-24T05:08:10.597Z,57.67
2019-01-24T05:10:40.252Z,57.33
2019-01-24T05:13:09.936Z,60.17
2019-01-24T05:15:39.598Z,58.43
2019-01-24T05:18:09.202Z,57.30
2019-01-24T05:20:39.137Z,56.87
2019-01-24T05:23:09.344Z,56.00
2019-01-24T05:25:38.968Z,55.20
2019-01-24T05:28:08.673Z,61.27
2019-01-24T05:30:38.374Z,55.87
2019-01-24T05:33:08.137Z,57.10
2019-01-24T05:35:37.776Z,55.73
2019-01-24T05:38:07.481Z,57.83
2019-01-24T05:40:37.177Z,52.90
2019-01-24T05:43:07.041Z,58.63
2019-01-24T05:45:36.901Z,56.63
2019-01-24T05:48:07.044Z,65.27
2019-01-24T05:50:37.668Z,64.60
2019-01-24T05:53:07.612Z,61.60
2019-01-24T05:55:37.713Z,56.25
2019-01-24T05:58:07.447Z,58.47
2019-01-24T06:00:43.400Z,62.73
2019-01-24T06:03:13.236Z,55.10
2019-01-24T06:05:42.860Z,57.30
2019-01-24T06:08:12.751Z,60.43
2019-01-24T06:10:42.612Z,52.60
2019-01-24T06:13:12.275Z,60.47
2019-01-24T06:15:41.985Z,64.23
2019-01-24T06:18:11.619Z,59.43
2019-01-24T06:20:41.518Z,56.87
2019-01-24T06:23:11.345Z,55.40
2019-01-24T06:25:41.049Z,56.43
2019-01-24T06:28:11.064Z,57.37
2019-01-24T06:30:40.948Z,57.93
2019-01-24T06:33:10.639Z,58.07
2019-01-24T06:35:40.345Z,54.57
2019-01-24T06:38:09.962Z,55.60
2019-01-24T06:40:39.987Z,56.97
2019-01-24T06:43:09.965Z,53.63
2019-01-24T06:45:40.088Z,59.90
2019-01-24T06:48:09.788Z,54.63
2019-01-24T06:50:39.529Z,55.23
2019-01-24T06:53:09.459Z,55.73
2019-01-24T06:55:39.344Z,57.67
2019-01-24T06:58:08.984Z,56.17
2019-01-24T07:00:38.652Z,57.77
2019-01-24T07:03:08.345Z,58.40
2019-01-24T07:05:38.205Z,52.63
2019-01-24T07:08:08.177Z,60.67
2019-01-24T07:10:37.947Z,55.77
2019-01-24T07:13:07.896Z,59.17
2019-01-24T07:15:38.268Z,56.88
2019-01-24T07:18:07.997Z,53.90
2019-01-24T07:20:38.176Z,54.10
2019-01-24T07:23:08.113Z,51.47
2019-01-24T07:25:37.911Z,57.70
2019-01-24T07:28:07.548Z,56.30
2019-01-24T07:30:37.964Z,49.60
2019-01-24T07:33:08.042Z,57.40
2019-01-24T07:35:38.001Z,53.30
2019-01-24T07:38:08.748Z,55.83
2019-01-24T07:40:38.474Z,51.50
2019-01-24T07:43:08.154Z,57.43
2019-01-24T07:45:40.609Z,55.67
2019-01-24T07:48:10.446Z,51.80
2019-01-24T07:50:40.117Z,50.63
2019-01-24T07:53:10.060Z,57.67
2019-01-24T07:55:39.762Z,54.73
2019-01-24T07:58:09.667Z,60.30
2019-01-24T08:00:39.393Z,60.93
2019-01-24T08:03:09.266Z,56.80
2019-01-24T08:05:39.029Z,56.43
2019-01-24T08:08:08.811Z,59.77
2019-01-24T08:10:38.488Z,52.60
2019-01-24T08:13:08.221Z,59.13
2019-01-24T08:15:38.448Z,57.48
2019-01-24T08:18:08.320Z,59.57
2019-01-24T08:20:38.453Z,56.10
2019-01-24T08:23:08.328Z,66.72
2019-01-24T08:25:38.570Z,62.62
2019-01-24T08:28:08.193Z,57.93
2019-01-24T08:30:38.445Z,58.95
2019-01-24T08:33:08.129Z,57.53
2019-01-24T08:35:38.524Z,52.78
2019-01-24T08:38:08.309Z,55.07
2019-01-24T08:40:38.577Z,57.38
2019-01-24T08:43:08.502Z,56.03
2019-01-24T08:45:38.564Z,60.30
2019-01-24T08:48:08.456Z,59.00
2019-01-24T08:50:38.457Z,53.83
2019-01-24T08:53:08.461Z,58.57
2019-01-24T08:55:40.546Z,58.17
2019-01-24T08:58:10.576Z,68.33
2019-01-24T09:00:41.586Z,58.27
2019-01-24T09:03:11.585Z,54.97
2019-01-24T09:05:41.541Z,57.13
2019-01-24T09:08:11.242Z,58.60
2019-01-24T09:10:42.429Z,56.30
2019-01-24T09:13:12.165Z,58.23
2019-01-24T09:15:41.792Z,57.67
2019-01-24T09:18:11.501Z,56.23
2019-01-24T09:20:41.441Z,65.27
2019-01-24T09:23:11.062Z,58.27
2019-01-24T09:25:40.760Z,62.90
2019-01-24T09:28:14.828Z,63.27
2019-01-24T09:30:42.169Z,58.13
2019-01-24T09:33:12.023Z,60.20
2019-01-24T09:35:42.128Z,61.33
2019-01-24T09:38:11.748Z,55.73
2019-01-24T09:40:41.630Z,58.80
2019-01-24T09:43:11.324Z,58.23
2019-01-24T09:45:40.948Z,62.90
2019-01-24T09:48:10.717Z,58.70
2019-01-24T09:50:40.371Z,58.97
2019-01-24T09:53:10.058Z,62.53
2019-01-24T09:55:40.251Z,61.23
2019-01-24T09:58:10.152Z,59.93
2019-01-24T10:00:39.891Z,60.17
2019-01-24T10:03:09.800Z,58.37
2019-01-24T10:05:39.778Z,57.93
2019-01-24T10:08:09.437Z,60.07
2019-01-24T10:10:39.553Z,57.17
2019-01-24T10:13:09.316Z,59.97
2019-01-24T10:15:39.243Z,61.30
2019-01-24T10:18:09.204Z,62.63
2019-01-24T10:20:39.129Z,58.60
2019-01-24T10:23:08.798Z,56.70
2019-01-24T10:25:39.462Z,60.03
2019-01-24T10:28:09.787Z,58.93
2019-01-24T10:30:43.180Z,57.60
2019-01-24T10:33:11.709Z,59.00
2019-01-24T10:35:41.647Z,63.40
2019-01-24T10:38:11.382Z,63.10
2019-01-24T10:40:41.077Z,60.63
2019-01-24T10:43:10.783Z,59.67
2019-01-24T10:45:40.553Z,61.97
2019-01-24T10:48:10.433Z,64.73
2019-01-24T10:50:40.150Z,61.47
2019-01-24T10:53:10.009Z,62.30
2019-01-24T10:55:39.760Z,61.20
2019-01-24T10:58:09.602Z,62.30
2019-01-24T11:00:40.938Z,60.87
2019-01-24T11:03:13.033Z,63.87
2019-01-24T11:05:43.172Z,67.73
2019-01-24T11:08:13.137Z,58.50
2019-01-24T11:10:43.141Z,59.37
2019-01-24T11:13:13.081Z,58.37
2019-01-24T11:15:43.102Z,59.60
2019-01-24T11:18:12.818Z,62.67
2019-01-24T11:20:42.618Z,61.27
2019-01-24T11:23:12.241Z,59.03
2019-01-24T11:25:41.987Z,63.67
2019-01-24T11:28:11.673Z,66.43
2019-01-24T11:30:41.422Z,65.00
2019-01-24T11:33:11.184Z,61.60
2019-01-24T11:35:41.299Z,62.70
2019-01-24T11:38:11.113Z,59.07
2019-01-24T11:40:40.752Z,64.87
2019-01-24T11:43:10.973Z,62.73
2019-01-24T11:45:42.633Z,63.93
2019-01-24T11:48:12.414Z,61.63
2019-01-24T11:50:42.239Z,60.77
2019-01-24T11:53:11.884Z,58.50
2019-01-24T11:55:41.523Z,52.00
2019-01-24T11:58:11.386Z,54.23
2019-01-24T12:00:48.997Z,55.90
2019-01-24T12:03:18.745Z,57.03
2019-01-24T12:05:48.942Z,51.33
2019-01-24T12:08:18.740Z,55.83
2019-01-24T12:10:48.480Z,58.67
2019-01-24T12:13:18.533Z,53.73
2019-01-24T12:15:49.185Z,62.17
2019-01-24T12:18:18.817Z,64.13
2019-01-24T12:20:48.797Z,53.77
2019-01-24T12:23:18.417Z,50.60
2019-01-24T12:25:48.134Z,54.63
2019-01-24T12:28:18.008Z,59.43
2019-01-24T12:30:48.060Z,57.77
2019-01-24T12:33:17.693Z,56.63
2019-01-24T12:35:47.371Z,57.67
2019-01-24T12:38:17.488Z,53.00
2019-01-24T12:40:47.118Z,57.23
2019-01-24T12:43:17.298Z,56.73
2019-01-24T12:45:47.011Z,57.90
2019-01-24T12:48:16.640Z,57.23
2019-01-24T12:50:46.274Z,59.27
2019-01-24T12:53:16.169Z,68.27
2019-01-24T12:55:46.044Z,58.93
2019-01-24T12:58:15.701Z,60.33
2019-01-24T13:00:45.949Z,61.27
2019-01-24T13:03:15.683Z,62.13
2019-01-24T13:05:45.452Z,62.73
2019-01-24T13:08:15.136Z,56.03
2019-01-24T13:10:44.913Z,59.90
2019-01-24T13:13:14.765Z,57.30
2019-01-24T13:15:44.461Z,51.70
2019-01-24T13:18:14.413Z,57.20
2019-01-24T13:20:44.117Z,53.83
2019-01-24T13:23:13.816Z,58.57
2019-01-24T13:25:43.560Z,60.10
2019-01-24T13:28:13.200Z,55.13
2019-01-24T13:30:43.189Z,57.23
2019-01-24T13:33:13.161Z,57.17
2019-01-24T13:35:42.790Z,60.83
2019-01-24T13:38:12.626Z,55.07
2019-01-24T13:40:42.302Z,60.50
2019-01-24T13:43:11.945Z,56.90
2019-01-24T13:45:41.652Z,58.20
2019-01-24T13:48:11.285Z,56.43
2019-01-24T13:50:41.342Z,57.70
2019-01-24T13:53:12.128Z,52.07
2019-01-24T13:55:41.793Z,62.23
2019-01-24T13:58:11.569Z,51.93
2019-01-24T14:00:41.950Z,56.80
2019-01-24T14:03:17.854Z,61.30
2019-01-24T14:05:47.712Z,61.07
2019-01-24T14:08:17.337Z,57.27
2019-01-24T14:10:47.046Z,53.77
2019-01-24T14:13:17.077Z,58.17
2019-01-24T14:15:46.694Z,59.00
2019-01-24T14:18:16.773Z,57.03
2019-01-24T14:20:46.490Z,55.73
2019-01-24T14:23:16.124Z,55.90
2019-01-24T14:25:45.832Z,55.80
2019-01-24T14:28:15.897Z,59.83
2019-01-24T14:30:45.857Z,62.07
2019-01-24T14:33:15.546Z,66.73
2019-01-24T14:35:45.333Z,58.23
2019-01-24T14:38:15.426Z,60.43
2019-01-24T14:40:45.096Z,54.37
2019-01-24T14:43:14.716Z,59.67
2019-01-24T14:45:44.351Z,56.07
2019-01-24T14:48:13.968Z,58.17
2019-01-24T14:50:43.601Z,57.63
2019-01-24T14:53:13.217Z,67.23
2019-01-24T14:55:42.926Z,77.33
2019-01-24T14:58:12.541Z,84.90
2019-01-24T15:00:54.713Z,99.73
2019-01-24T15:03:24.333Z,80.10
2019-01-24T15:05:54.956Z,69.27
2019-01-24T15:08:24.862Z,62.67
2019-01-24T15:10:54.570Z,66.27
2019-01-24T15:13:24.365Z,64.13
2019-01-24T15:15:53.997Z,61.47
2019-01-24T15:18:23.658Z,54.77
2019-01-24T15:20:53.361Z,55.47
2019-01-24T15:23:22.972Z,59.60
2019-01-24T15:25:52.601Z,59.67
2019-01-24T15:28:22.313Z,53.00
2019-01-24T15:30:52.342Z,54.97
2019-01-24T15:33:21.961Z,54.57
2019-01-24T15:35:51.591Z,56.90
2019-01-24T15:38:21.234Z,55.87
2019-01-24T15:40:50.866Z,57.53
2019-01-24T15:43:20.468Z,54.77
2019-01-24T15:45:50.105Z,49.23
2019-01-24T15:48:20.104Z,53.57
2019-01-24T15:50:49.748Z,53.13
2019-01-24T15:53:19.477Z,57.27
2019-01-24T15:55:49.434Z,51.53
2019-01-24T15:58:19.605Z,55.30
2019-01-24T16:00:49.602Z,59.03
2019-01-24T16:03:19.508Z,59.40
2019-01-24T16:05:49.560Z,59.50
2019-01-24T16:08:19.180Z,57.63
2019-01-24T16:10:49.057Z,64.07
2019-01-24T16:13:18.704Z,57.23
2019-01-24T16:15:48.492Z,57.07
2019-01-24T16:18:18.108Z,52.73
2019-01-24T16:20:47.799Z,57.77
2019-01-24T16:23:17.412Z,51.50
2019-01-24T16:25:47.111Z,53.73
2019-01-24T16:28:17.132Z,57.17
2019-01-24T16:30:46.749Z,53.47
2019-01-24T16:33:16.765Z,54.10
2019-01-24T16:35:46.475Z,53.03
2019-01-24T16:38:16.086Z,53.50
2019-01-24T16:40:45.794Z,53.97
2019-01-24T16:43:15.492Z,54.87
2019-01-24T16:45:45.104Z,50.30
2019-01-24T16:48:15.800Z,47.10
2019-01-24T16:50:45.453Z,48.73
2019-01-24T16:53:15.129Z,49.13
2019-01-24T16:55:44.741Z,46.90
2019-01-24T16:58:14.439Z,54.17
2019-01-24T17:00:50.877Z,54.13
2019-01-24T17:03:20.577Z,53.60
2019-01-24T17:05:50.623Z,52.30
2019-01-24T17:08:20.413Z,55.87
2019-01-24T17:10:50.037Z,48.93
2019-01-24T17:13:19.741Z,52.13
2019-01-24T17:15:49.597Z,51.57
2019-01-24T17:18:19.340Z,46.53
2019-01-24T17:20:50.194Z,51.10
2019-01-24T17:23:19.831Z,49.83
2019-01-24T17:25:49.776Z,51.67
2019-01-24T17:28:19.520Z,52.97
2019-01-24T17:30:49.144Z,52.57
2019-01-24T17:33:18.773Z,49.60
2019-01-24T17:35:48.472Z,54.70
2019-01-24T17:38:23.701Z,53.50
2019-01-24T17:40:49.424Z,51.00
2019-01-24T17:43:19.612Z,49.33
2019-01-24T17:45:50.398Z,53.77
2019-01-24T17:48:20.393Z,46.00
2019-01-24T17:50:50.289Z,56.67
2019-01-24T17:53:19.966Z,50.03
2019-01-24T17:55:49.712Z,45.80
2019-01-24T17:58:19.585Z,46.27
2019-01-24T18:00:51.449Z,41.77
2019-01-24T18:03:21.070Z,44.87
2019-01-24T18:05:51.088Z,45.00
2019-01-24T18:08:20.868Z,44.30
2019-01-24T18:10:50.650Z,43.47
2019-01-24T18:13:20.713Z,42.07
2019-01-24T18:15:50.353Z,44.67
2019-01-24T18:18:20.953Z,42.83
2019-01-24T18:20:50.695Z,44.53
2019-01-24T18:23:20.329Z,39.10
2019-01-24T18:25:50.170Z,43.70
2019-01-24T18:28:19.805Z,46.30
2019-01-24T18:30:49.615Z,55.03
2019-01-24T18:33:19.233Z,62.40
2019-01-24T18:35:49.220Z,48.87
2019-01-24T18:38:18.930Z,48.73
2019-01-24T18:40:48.827Z,49.47
2019-01-24T18:43:24.509Z,48.57
2019-01-24T18:45:56.957Z,49.13
2019-01-24T18:48:27.024Z,45.80
2019-01-24T18:50:57.121Z,45.70
2019-01-24T18:53:26.965Z,47.60
2019-01-24T18:55:56.751Z,46.87
2019-01-24T18:58:26.444Z,47.37
2019-01-24T19:00:56.076Z,45.00
2019-01-24T19:03:25.688Z,47.43
2019-01-24T19:05:55.557Z,49.23
2019-01-24T19:08:25.613Z,47.37
2019-01-24T19:10:55.301Z,47.27
2019-01-24T19:13:25.005Z,44.37
2019-01-24T19:15:55.050Z,45.03
2019-01-24T19:18:24.853Z,43.97
2019-01-24T19:20:54.507Z,39.53
2019-01-24T19:23:24.489Z,39.33
2019-01-24T19:25:54.425Z,42.17
2019-01-24T19:28:24.417Z,43.50
2019-01-24T19:30:54.052Z,43.13
2019-01-24T19:33:23.733Z,42.20
2019-01-24T19:36:00.297Z,43.70
2019-01-24T19:38:25.734Z,41.40
2019-01-24T19:40:55.372Z,41.00
2019-01-24T19:43:24.988Z,38.27
2019-01-24T19:45:54.708Z,40.53
2019-01-24T19:48:24.393Z,41.60
2019-01-24T19:50:54.205Z,41.13
2019-01-24T19:53:23.813Z,41.33
2019-01-24T19:55:53.473Z,43.70
2019-01-24T19:58:23.246Z,60.53
2019-01-24T20:00:53.121Z,49.83
2019-01-24T20:03:22.840Z,49.63
2019-01-24T20:05:53.500Z,45.50
2019-01-24T20:08:23.301Z,45.27
2019-01-24T20:10:53.002Z,51.87
2019-01-24T20:13:23.041Z,46.43
2019-01-24T20:15:52.736Z,48.50
2019-01-24T20:18:22.352Z,47.90
2019-01-24T20:20:52.002Z,46.60
2019-01-24T20:23:21.749Z,38.43
2019-01-24T20:25:51.449Z,43.00
2019-01-24T20:28:21.076Z,42.13
2019-01-24T20:30:50.699Z,42.20
2019-01-24T20:33:20.387Z,49.17
2019-01-24T20:35:52.666Z,42.60
2019-01-24T20:38:22.586Z,41.00
2019-01-24T20:40:52.311Z,40.47
2019-01-24T20:43:22.341Z,42.43
2019-01-24T20:45:52.050Z,45.97
2019-01-24T20:48:21.676Z,38.03
2019-01-24T20:50:51.305Z,43.23
2019-01-24T20:53:20.929Z,41.93
2019-01-24T20:55:50.935Z,43.77
2019-01-24T20:58:20.689Z,41.63
2019-01-24T21:00:51.182Z,47.53
2019-01-24T21:03:21.123Z,43.20
2019-01-24T21:05:50.737Z,42.60
2019-01-24T21:08:20.455Z,46.30
2019-01-24T21:10:50.097Z,44.73
2019-01-24T21:13:19.729Z,44.57
2019-01-24T21:15:49.386Z,49.37
2019-01-24T21:18:19.255Z,41.93
2019-01-24T21:20:48.887Z,41.90
2019-01-24T21:23:18.504Z,41.73
2019-01-24T21:25:48.116Z,43.37
2019-01-24T21:28:17.745Z,41.77
2019-01-24T21:30:47.369Z,39.73
2019-01-24T21:33:17.002Z,42.67
2019-01-24T21:35:46.873Z,39.83
2019-01-24T21:38:16.933Z,42.17
2019-01-24T21:40:46.565Z,40.33
2019-01-24T21:43:16.525Z,42.97
2019-01-24T21:45:46.553Z,42.17
2019-01-24T21:48:16.261Z,41.90
2019-01-24T21:50:45.876Z,38.60
2019-01-24T21:53:15.671Z,41.33
2019-01-24T21:55:45.283Z,40.50
2019-01-24T21:58:15.073Z,44.67
2019-01-24T22:00:45.898Z,42.73
2019-01-24T22:03:15.593Z,41.77
2019-01-24T22:05:45.347Z,46.30
2019-01-24T22:08:15.273Z,46.17
2019-01-24T22:10:45.036Z,43.40
2019-01-24T22:13:14.664Z,45.57
2019-01-24T22:15:44.294Z,46.90
2019-01-24T22:18:13.982Z,44.90
2019-01-24T22:20:43.601Z,40.53
2019-01-24T22:23:13.237Z,40.50
2019-01-24T22:25:42.852Z,46.23
2019-01-24T22:28:12.481Z,42.97
2019-01-24T22:30:46.992Z,43.83
2019-01-24T22:33:16.666Z,47.57
2019-01-24T22:35:46.291Z,44.00
2019-01-24T22:38:15.972Z,46.27
2019-01-24T22:40:45.672Z,40.60
2019-01-24T22:43:15.321Z,36.90
2019-01-24T22:45:45.025Z,39.80
2019-01-24T22:48:15.038Z,37.83
2019-01-24T22:50:44.745Z,40.43
2019-01-24T22:53:14.360Z,37.03
2019-01-24T22:55:44.541Z,39.50
2019-01-24T22:58:14.173Z,34.27
2019-01-24T23:01:28.147Z,36.57
2019-01-24T23:04:19.053Z,40.43
2019-01-24T23:06:48.812Z,39.93
2019-01-24T23:09:20.172Z,37.00
2019-01-24T23:11:49.878Z,35.27
2019-01-24T23:14:19.653Z,37.67
2019-01-24T23:16:49.581Z,37.10
2019-01-24T23:19:19.378Z,34.97
2019-01-24T23:21:49.622Z,37.97
2019-01-24T23:24:19.408Z,36.03
2019-01-24T23:26:52.210Z,37.77
2019-01-24T23:29:22.208Z,37.07
2019-01-24T23:31:51.989Z,37.50
2019-01-24T23:34:21.693Z,40.60
2019-01-24T23:36:51.431Z,38.83
2019-01-24T23:39:21.076Z,40.43
2019-01-24T23:41:50.965Z,39.40
2019-01-24T23:44:20.584Z,35.60
2019-01-24T23:46:50.323Z,39.13
2019-01-24T23:49:20.220Z,38.23
2019-01-24T23:51:50.073Z,38.97
2019-01-24T23:54:19.746Z,39.33
2019-01-24T23:56:49.473Z,41.97
2019-01-24T23:59:19.117Z,34.07
